sensor_id;sensor_type;location;lat;lon;timestamp;temperature;humidity
12166;DHT22;6146;48.128;11.476;2023-02-13T00:01:27;1.80;99.90
12166;DHT22;6146;48.128;11.476;2023-02-13T00:03:53;1.80;99.90
12166;DHT22;6146;48.128;11.476;2023-02-13T00:06:19;1.80;99.90
12166;DHT22;6146;48.128;11.476;2023-02-13T00:08:44;1.90;99.90
12166;DHT22;6146;48.128;11.476;2023-02-13T00:11:10;1.90;99.90
12166;DHT22;6146;48.128;11.476;2023-02-13T00:13:35;1.80;99.90
12166;DHT22;6146;48.128;11.476;2023-02-13T00:16:03;1.80;99.90
12166;DHT22;6146;48.128;11.476;2023-02-13T00:18:31;1.70;99.90
12166;DHT22;6146;48.128;11.476;2023-02-13T00:21:03;1.70;99.90
12166;DHT22;6146;48.128;11.476;2023-02-13T00:23:30;1.70;99.90
12166;DHT22;6146;48.128;11.476;2023-02-13T00:25:56;1.80;99.90
12166;DHT22;6146;48.128;11.476;2023-02-13T00:28:22;1.70;99.90
12166;DHT22;6146;48.128;11.476;2023-02-13T00:30:47;1.70;99.90
12166;DHT22;6146;48.128;11.476;2023-02-13T00:33:13;1.80;99.90
12166;DHT22;6146;48.128;11.476;2023-02-13T00:35:38;1.80;99.90
12166;DHT22;6146;48.128;11.476;2023-02-13T00:38:04;1.80;99.90
12166;DHT22;6146;48.128;11.476;2023-02-13T00:40:30;1.80;99.90
12166;DHT22;6146;48.128;11.476;2023-02-13T00:42:55;1.80;99.90
12166;DHT22;6146;48.128;11.476;2023-02-13T00:45:21;1.90;99.90
12166;DHT22;6146;48.128;11.476;2023-02-13T00:47:46;1.80;99.90
12166;DHT22;6146;48.128;11.476;2023-02-13T00:50:12;1.70;99.90
12166;DHT22;6146;48.128;11.476;2023-02-13T00:52:50;1.80;99.90
12166;DHT22;6146;48.128;11.476;2023-02-13T00:55:15;1.80;99.90
12166;DHT22;6146;48.128;11.476;2023-02-13T00:57:41;1.90;99.90
12166;DHT22;6146;48.128;11.476;2023-02-13T01:00:07;1.90;99.90
12166;DHT22;6146;48.128;11.476;2023-02-13T01:02:32;2.00;99.90
12166;DHT22;6146;48.128;11.476;2023-02-13T01:05:00;2.00;99.90
12166;DHT22;6146;48.128;11.476;2023-02-13T01:07:26;2.00;99.90
12166;DHT22;6146;48.128;11.476;2023-02-13T01:09:51;1.90;99.90
12166;DHT22;6146;48.128;11.476;2023-02-13T01:12:17;2.00;99.90
12166;DHT22;6146;48.128;11.476;2023-02-13T01:14:42;2.00;99.90
12166;DHT22;6146;48.128;11.476;2023-02-13T01:17:08;2.00;99.90
12166;DHT22;6146;48.128;11.476;2023-02-13T01:19:33;2.00;99.90
12166;DHT22;6146;48.128;11.476;2023-02-13T01:21:59;2.10;99.90
12166;DHT22;6146;48.128;11.476;2023-02-13T01:24:24;2.10;99.90
12166;DHT22;6146;48.128;11.476;2023-02-13T01:26:54;2.10;99.90
12166;DHT22;6146;48.128;11.476;2023-02-13T01:29:19;2.10;99.90
12166;DHT22;6146;48.128;11.476;2023-02-13T01:31:45;2.20;99.90
12166;DHT22;6146;48.128;11.476;2023-02-13T01:34:10;2.30;99.90
12166;DHT22;6146;48.128;11.476;2023-02-13T01:36:36;2.30;99.90
12166;DHT22;6146;48.128;11.476;2023-02-13T01:39:01;2.30;99.90
12166;DHT22;6146;48.128;11.476;2023-02-13T01:41:27;2.20;99.90
12166;DHT22;6146;48.128;11.476;2023-02-13T01:43:55;2.20;99.90
12166;DHT22;6146;48.128;11.476;2023-02-13T01:46:35;2.20;99.90
12166;DHT22;6146;48.128;11.476;2023-02-13T01:49:10;2.30;99.90
12166;DHT22;6146;48.128;11.476;2023-02-13T01:51:38;2.30;99.90
12166;DHT22;6146;48.128;11.476;2023-02-13T01:54:11;2.40;99.90
12166;DHT22;6146;48.128;11.476;2023-02-13T01:56:43;2.40;99.90
12166;DHT22;6146;48.128;11.476;2023-02-13T01:59:13;2.40;99.90
12166;DHT22;6146;48.128;11.476;2023-02-13T02:01:40;2.40;99.90
12166;DHT22;6146;48.128;11.476;2023-02-13T02:04:32;2.50;99.90
12166;DHT22;6146;48.128;11.476;2023-02-13T02:07:20;2.40;99.90
12166;DHT22;6146;48.128;11.476;2023-02-13T02:09:46;2.40;99.90
12166;DHT22;6146;48.128;11.476;2023-02-13T02:12:22;2.30;99.90
12166;DHT22;6146;48.128;11.476;2023-02-13T02:14:51;2.30;99.90
12166;DHT22;6146;48.128;11.476;2023-02-13T02:17:17;2.40;99.90
12166;DHT22;6146;48.128;11.476;2023-02-13T02:20:16;2.40;99.90
12166;DHT22;6146;48.128;11.476;2023-02-13T02:26:04;2.40;99.90
12166;DHT22;6146;48.128;11.476;2023-02-13T02:34:26;2.20;99.90
12166;DHT22;6146;48.128;11.476;2023-02-13T02:42:41;2.20;99.90
12166;DHT22;6146;48.128;11.476;2023-02-13T02:45:15;2.10;99.90
12166;DHT22;6146;48.128;11.476;2023-02-13T02:47:59;2.30;99.90
12166;DHT22;6146;48.128;11.476;2023-02-13T02:50:51;2.10;99.90
12166;DHT22;6146;48.128;11.476;2023-02-13T02:56:16;2.10;99.90
12166;DHT22;6146;48.128;11.476;2023-02-13T02:58:47;2.10;99.90
12166;DHT22;6146;48.128;11.476;2023-02-13T03:01:34;2.20;99.90
12166;DHT22;6146;48.128;11.476;2023-02-13T03:04:27;2.20;99.90
12166;DHT22;6146;48.128;11.476;2023-02-13T03:07:16;2.10;99.90
12166;DHT22;6146;48.128;11.476;2023-02-13T03:09:46;2.10;99.90
12166;DHT22;6146;48.128;11.476;2023-02-13T03:12:41;2.20;99.90
12166;DHT22;6146;48.128;11.476;2023-02-13T03:15:27;2.10;99.90
12166;DHT22;6146;48.128;11.476;2023-02-13T03:17:55;2.00;99.90
12166;DHT22;6146;48.128;11.476;2023-02-13T03:21:11;1.90;99.90
12166;DHT22;6146;48.128;11.476;2023-02-13T03:24:29;1.90;99.90
12166;DHT22;6146;48.128;11.476;2023-02-13T03:42:33;2.20;99.90
12166;DHT22;6146;48.128;11.476;2023-02-13T03:47:54;2.20;99.90
12166;DHT22;6146;48.128;11.476;2023-02-13T03:50:21;2.20;99.90
12166;DHT22;6146;48.128;11.476;2023-02-13T03:52:59;2.20;99.90
12166;DHT22;6146;48.128;11.476;2023-02-13T03:55:37;2.20;99.90
12166;DHT22;6146;48.128;11.476;2023-02-13T03:58:27;2.20;99.90
12166;DHT22;6146;48.128;11.476;2023-02-13T04:01:16;2.20;99.90
12166;DHT22;6146;48.128;11.476;2023-02-13T04:06:19;2.10;99.90
12166;DHT22;6146;48.128;11.476;2023-02-13T04:08:46;4.20;99.90
12166;DHT22;6146;48.128;11.476;2023-02-13T04:11:27;2.10;99.90
12166;DHT22;6146;48.128;11.476;2023-02-13T04:14:04;2.10;99.90
12166;DHT22;6146;48.128;11.476;2023-02-13T04:16:51;2.00;99.90
12166;DHT22;6146;48.128;11.476;2023-02-13T04:19:17;2.00;99.90
12166;DHT22;6146;48.128;11.476;2023-02-13T04:21:48;1.90;99.90
12166;DHT22;6146;48.128;11.476;2023-02-13T04:24:14;1.90;99.90
12166;DHT22;6146;48.128;11.476;2023-02-13T04:26:42;1.80;99.90
12166;DHT22;6146;48.128;11.476;2023-02-13T04:29:08;1.80;99.90
12166;DHT22;6146;48.128;11.476;2023-02-13T04:31:34;1.80;99.90
12166;DHT22;6146;48.128;11.476;2023-02-13T04:33:59;1.80;99.90
12166;DHT22;6146;48.128;11.476;2023-02-13T04:36:25;1.70;99.90
12166;DHT22;6146;48.128;11.476;2023-02-13T04:38:51;1.70;99.90
12166;DHT22;6146;48.128;11.476;2023-02-13T04:41:17;1.70;99.90
12166;DHT22;6146;48.128;11.476;2023-02-13T04:43:42;1.70;99.90
12166;DHT22;6146;48.128;11.476;2023-02-13T04:46:08;1.70;99.90
12166;DHT22;6146;48.128;11.476;2023-02-13T04:48:33;1.80;99.90
12166;DHT22;6146;48.128;11.476;2023-02-13T04:50:59;1.80;99.90
12166;DHT22;6146;48.128;11.476;2023-02-13T04:53:24;1.80;99.90
12166;DHT22;6146;48.128;11.476;2023-02-13T04:55:50;1.80;99.90
12166;DHT22;6146;48.128;11.476;2023-02-13T04:58:16;1.90;99.90
12166;DHT22;6146;48.128;11.476;2023-02-13T05:00:42;1.80;99.90
12166;DHT22;6146;48.128;11.476;2023-02-13T05:03:09;1.80;99.90
12166;DHT22;6146;48.128;11.476;2023-02-13T05:05:36;1.70;99.90
12166;DHT22;6146;48.128;11.476;2023-02-13T05:08:01;1.70;99.90
12166;DHT22;6146;48.128;11.476;2023-02-13T05:10:27;1.60;99.90
12166;DHT22;6146;48.128;11.476;2023-02-13T05:12:53;1.60;99.90
12166;DHT22;6146;48.128;11.476;2023-02-13T05:15:18;1.60;99.90
12166;DHT22;6146;48.128;11.476;2023-02-13T05:17:45;1.70;99.90
12166;DHT22;6146;48.128;11.476;2023-02-13T05:20:12;1.80;99.90
12166;DHT22;6146;48.128;11.476;2023-02-13T05:22:45;1.80;99.90
12166;DHT22;6146;48.128;11.476;2023-02-13T05:25:30;1.90;99.90
12166;DHT22;6146;48.128;11.476;2023-02-13T05:27:56;1.90;99.90
12166;DHT22;6146;48.128;11.476;2023-02-13T05:30:22;1.90;99.90
12166;DHT22;6146;48.128;11.476;2023-02-13T05:32:47;1.80;99.90
12166;DHT22;6146;48.128;11.476;2023-02-13T05:35:15;1.80;99.90
12166;DHT22;6146;48.128;11.476;2023-02-13T05:37:40;1.70;99.90
12166;DHT22;6146;48.128;11.476;2023-02-13T05:40:07;1.60;99.90
12166;DHT22;6146;48.128;11.476;2023-02-13T05:42:33;1.60;99.90
12166;DHT22;6146;48.128;11.476;2023-02-13T05:44:58;1.60;99.90
12166;DHT22;6146;48.128;11.476;2023-02-13T05:47:24;1.60;99.90
12166;DHT22;6146;48.128;11.476;2023-02-13T05:49:49;1.60;99.90
12166;DHT22;6146;48.128;11.476;2023-02-13T05:52:15;1.60;99.90
12166;DHT22;6146;48.128;11.476;2023-02-13T05:54:40;1.60;99.90
12166;DHT22;6146;48.128;11.476;2023-02-13T05:57:06;1.60;99.90
12166;DHT22;6146;48.128;11.476;2023-02-13T05:59:31;1.50;99.90
12166;DHT22;6146;48.128;11.476;2023-02-13T06:01:57;1.50;99.90
12166;DHT22;6146;48.128;11.476;2023-02-13T06:04:22;1.50;99.90
12166;DHT22;6146;48.128;11.476;2023-02-13T06:06:48;1.50;99.90
12166;DHT22;6146;48.128;11.476;2023-02-13T06:09:14;1.50;99.90
12166;DHT22;6146;48.128;11.476;2023-02-13T06:11:39;1.50;99.90
12166;DHT22;6146;48.128;11.476;2023-02-13T06:14:05;1.40;99.90
12166;DHT22;6146;48.128;11.476;2023-02-13T06:16:30;1.50;99.90
12166;DHT22;6146;48.128;11.476;2023-02-13T06:18:56;1.60;99.90
12166;DHT22;6146;48.128;11.476;2023-02-13T06:21:22;1.60;99.90
12166;DHT22;6146;48.128;11.476;2023-02-13T06:23:47;1.70;99.90
12166;DHT22;6146;48.128;11.476;2023-02-13T06:26:13;1.80;99.90
12166;DHT22;6146;48.128;11.476;2023-02-13T06:28:39;1.90;99.90
12166;DHT22;6146;48.128;11.476;2023-02-13T06:31:04;1.90;99.90
12166;DHT22;6146;48.128;11.476;2023-02-13T06:33:30;1.90;99.90
12166;DHT22;6146;48.128;11.476;2023-02-13T06:35:56;1.90;99.90
12166;DHT22;6146;48.128;11.476;2023-02-13T06:38:21;2.00;99.90
12166;DHT22;6146;48.128;11.476;2023-02-13T06:40:49;2.00;99.90
12166;DHT22;6146;48.128;11.476;2023-02-13T06:43:16;2.10;99.90
12166;DHT22;6146;48.128;11.476;2023-02-13T06:45:42;2.10;99.90
12166;DHT22;6146;48.128;11.476;2023-02-13T06:48:08;2.20;99.90
12166;DHT22;6146;48.128;11.476;2023-02-13T06:50:34;2.20;99.90
12166;DHT22;6146;48.128;11.476;2023-02-13T06:52:59;2.20;99.90
12166;DHT22;6146;48.128;11.476;2023-02-13T06:55:26;2.20;99.90
12166;DHT22;6146;48.128;11.476;2023-02-13T06:57:51;2.10;99.90
12166;DHT22;6146;48.128;11.476;2023-02-13T07:00:18;2.10;99.90
12166;DHT22;6146;48.128;11.476;2023-02-13T07:02:45;2.10;99.90
12166;DHT22;6146;48.128;11.476;2023-02-13T07:05:11;2.00;99.90
12166;DHT22;6146;48.128;11.476;2023-02-13T07:07:38;2.00;99.90
12166;DHT22;6146;48.128;11.476;2023-02-13T07:10:06;2.00;99.90
12166;DHT22;6146;48.128;11.476;2023-02-13T07:12:33;2.00;99.90
12166;DHT22;6146;48.128;11.476;2023-02-13T07:14:59;2.10;99.90
12166;DHT22;6146;48.128;11.476;2023-02-13T07:17:25;2.10;99.90
12166;DHT22;6146;48.128;11.476;2023-02-13T07:19:51;2.10;99.90
12166;DHT22;6146;48.128;11.476;2023-02-13T07:22:17;2.20;99.90
12166;DHT22;6146;48.128;11.476;2023-02-13T07:24:42;2.20;99.90
12166;DHT22;6146;48.128;11.476;2023-02-13T07:27:08;2.20;99.90
12166;DHT22;6146;48.128;11.476;2023-02-13T07:29:33;2.30;99.90
12166;DHT22;6146;48.128;11.476;2023-02-13T07:31:59;2.40;99.90
12166;DHT22;6146;48.128;11.476;2023-02-13T07:34:25;2.30;99.90
12166;DHT22;6146;48.128;11.476;2023-02-13T07:36:50;2.30;99.90
12166;DHT22;6146;48.128;11.476;2023-02-13T07:39:16;2.40;99.90
12166;DHT22;6146;48.128;11.476;2023-02-13T07:41:42;2.50;99.90
12166;DHT22;6146;48.128;11.476;2023-02-13T07:44:07;2.50;99.90
12166;DHT22;6146;48.128;11.476;2023-02-13T07:46:33;2.40;99.90
12166;DHT22;6146;48.128;11.476;2023-02-13T07:48:58;2.40;99.90
12166;DHT22;6146;48.128;11.476;2023-02-13T07:51:24;2.40;99.90
12166;DHT22;6146;48.128;11.476;2023-02-13T07:53:51;2.60;99.90
12166;DHT22;6146;48.128;11.476;2023-02-13T07:56:17;2.60;99.90
12166;DHT22;6146;48.128;11.476;2023-02-13T07:58:43;2.60;99.90
12166;DHT22;6146;48.128;11.476;2023-02-13T08:01:11;2.60;99.90
12166;DHT22;6146;48.128;11.476;2023-02-13T08:03:37;2.70;99.90
12166;DHT22;6146;48.128;11.476;2023-02-13T08:06:04;2.80;99.90
12166;DHT22;6146;48.128;11.476;2023-02-13T08:08:30;2.80;99.90
12166;DHT22;6146;48.128;11.476;2023-02-13T08:10:56;2.90;99.90
12166;DHT22;6146;48.128;11.476;2023-02-13T08:13:41;3.00;99.90
12166;DHT22;6146;48.128;11.476;2023-02-13T08:16:07;3.00;99.90
12166;DHT22;6146;48.128;11.476;2023-02-13T08:18:33;2.90;99.90
12166;DHT22;6146;48.128;11.476;2023-02-13T08:21:01;3.00;99.90
12166;DHT22;6146;48.128;11.476;2023-02-13T08:23:27;3.10;99.90
12166;DHT22;6146;48.128;11.476;2023-02-13T08:25:52;3.10;99.90
12166;DHT22;6146;48.128;11.476;2023-02-13T08:28:18;3.10;99.90
12166;DHT22;6146;48.128;11.476;2023-02-13T08:30:44;3.10;99.90
12166;DHT22;6146;48.128;11.476;2023-02-13T08:33:09;3.20;99.90
12166;DHT22;6146;48.128;11.476;2023-02-13T08:35:35;3.20;99.90
12166;DHT22;6146;48.128;11.476;2023-02-13T08:38:04;3.10;99.90
12166;DHT22;6146;48.128;11.476;2023-02-13T08:40:30;3.20;99.90
12166;DHT22;6146;48.128;11.476;2023-02-13T08:43:00;3.20;99.90
12166;DHT22;6146;48.128;11.476;2023-02-13T08:45:26;3.20;99.90
12166;DHT22;6146;48.128;11.476;2023-02-13T08:47:55;3.20;99.90
12166;DHT22;6146;48.128;11.476;2023-02-13T08:50:22;3.20;99.90
12166;DHT22;6146;48.128;11.476;2023-02-13T08:52:47;3.20;99.90
12166;DHT22;6146;48.128;11.476;2023-02-13T08:55:13;3.30;99.90
12166;DHT22;6146;48.128;11.476;2023-02-13T08:57:38;3.30;99.90
12166;DHT22;6146;48.128;11.476;2023-02-13T09:00:04;3.40;99.90
12166;DHT22;6146;48.128;11.476;2023-02-13T09:02:30;3.40;99.90
12166;DHT22;6146;48.128;11.476;2023-02-13T09:04:56;3.40;99.90
12166;DHT22;6146;48.128;11.476;2023-02-13T09:07:21;3.40;99.90
12166;DHT22;6146;48.128;11.476;2023-02-13T09:09:47;3.50;99.90
12166;DHT22;6146;48.128;11.476;2023-02-13T09:12:12;3.50;99.90
12166;DHT22;6146;48.128;11.476;2023-02-13T09:14:38;3.20;99.90
12166;DHT22;6146;48.128;11.476;2023-02-13T09:17:04;3.10;99.90
12166;DHT22;6146;48.128;11.476;2023-02-13T09:19:30;3.00;99.90
12166;DHT22;6146;48.128;11.476;2023-02-13T09:21:55;3.00;99.90
12166;DHT22;6146;48.128;11.476;2023-02-13T09:24:21;3.10;99.90
12166;DHT22;6146;48.128;11.476;2023-02-13T09:26:46;3.20;99.90
12166;DHT22;6146;48.128;11.476;2023-02-13T09:29:12;3.10;99.90
12166;DHT22;6146;48.128;11.476;2023-02-13T09:31:37;3.00;99.90
12166;DHT22;6146;48.128;11.476;2023-02-13T09:34:03;3.10;99.90
12166;DHT22;6146;48.128;11.476;2023-02-13T09:36:28;3.10;99.90
12166;DHT22;6146;48.128;11.476;2023-02-13T09:38:55;3.10;99.90
12166;DHT22;6146;48.128;11.476;2023-02-13T09:41:36;3.10;99.90
12166;DHT22;6146;48.128;11.476;2023-02-13T09:44:34;3.10;99.90
12166;DHT22;6146;48.128;11.476;2023-02-13T09:49:38;3.10;99.90
12166;DHT22;6146;48.128;11.476;2023-02-13T09:52:06;3.10;99.90
12166;DHT22;6146;48.128;11.476;2023-02-13T09:54:33;3.00;99.90
12166;DHT22;6146;48.128;11.476;2023-02-13T09:57:48;3.10;99.90
12166;DHT22;6146;48.128;11.476;2023-02-13T10:05:45;3.30;99.90
12166;DHT22;6146;48.128;11.476;2023-02-13T10:14:37;3.70;99.90
12166;DHT22;6146;48.128;11.476;2023-02-13T10:17:13;3.60;99.90
12166;DHT22;6146;48.128;11.476;2023-02-13T10:19:47;3.70;99.90
12166;DHT22;6146;48.128;11.476;2023-02-13T10:22:17;3.80;99.90
12166;DHT22;6146;48.128;11.476;2023-02-13T10:24:50;3.90;99.90
12166;DHT22;6146;48.128;11.476;2023-02-13T10:27:23;3.90;99.90
12166;DHT22;6146;48.128;11.476;2023-02-13T10:32:43;4.00;99.90
12166;DHT22;6146;48.128;11.476;2023-02-13T10:35:37;4.10;99.90
12166;DHT22;6146;48.128;11.476;2023-02-13T10:38:16;4.30;99.90
12166;DHT22;6146;48.128;11.476;2023-02-13T10:41:05;4.40;99.90
12166;DHT22;6146;48.128;11.476;2023-02-13T10:47:02;4.50;99.90
12166;DHT22;6146;48.128;11.476;2023-02-13T10:58:16;4.30;99.90
12166;DHT22;6146;48.128;11.476;2023-02-13T11:03:58;4.50;99.90
12166;DHT22;6146;48.128;11.476;2023-02-13T11:06:24;3.80;99.90
12166;DHT22;6146;48.128;11.476;2023-02-13T11:08:50;3.80;99.90
12166;DHT22;6146;48.128;11.476;2023-02-13T11:11:37;4.00;99.90
12166;DHT22;6146;48.128;11.476;2023-02-13T11:14:12;4.10;99.90
12166;DHT22;6146;48.128;11.476;2023-02-13T11:22:29;4.30;99.90
12166;DHT22;6146;48.128;11.476;2023-02-13T11:24:59;4.30;99.90
12166;DHT22;6146;48.128;11.476;2023-02-13T11:27:35;4.20;99.90
12166;DHT22;6146;48.128;11.476;2023-02-13T11:30:05;4.10;99.90
12166;DHT22;6146;48.128;11.476;2023-02-13T11:32:34;4.10;99.90
12166;DHT22;6146;48.128;11.476;2023-02-13T11:35:25;4.10;99.90
12166;DHT22;6146;48.128;11.476;2023-02-13T11:40:43;4.60;99.90
12166;DHT22;6146;48.128;11.476;2023-02-13T11:43:22;4.70;99.90
12166;DHT22;6146;48.128;11.476;2023-02-13T11:46:06;4.80;99.90
12166;DHT22;6146;48.128;11.476;2023-02-13T11:48:33;4.80;99.90
12166;DHT22;6146;48.128;11.476;2023-02-13T11:50:58;4.60;99.90
12166;DHT22;6146;48.128;11.476;2023-02-13T11:53:29;4.60;99.90
12166;DHT22;6146;48.128;11.476;2023-02-13T11:56:08;4.80;99.90
12166;DHT22;6146;48.128;11.476;2023-02-13T11:58:34;4.70;99.90
12166;DHT22;6146;48.128;11.476;2023-02-13T12:04:04;4.50;99.90
12166;DHT22;6146;48.128;11.476;2023-02-13T12:06:31;4.60;99.90
12166;DHT22;6146;48.128;11.476;2023-02-13T12:09:08;4.80;99.90
12166;DHT22;6146;48.128;11.476;2023-02-13T12:11:45;5.00;99.90
12166;DHT22;6146;48.128;11.476;2023-02-13T12:14:19;5.00;99.90
12166;DHT22;6146;48.128;11.476;2023-02-13T12:16:46;4.90;99.90
12166;DHT22;6146;48.128;11.476;2023-02-13T12:19:19;5.10;99.90
12166;DHT22;6146;48.128;11.476;2023-02-13T12:33:09;5.30;99.90
12166;DHT22;6146;48.128;11.476;2023-02-13T12:47:06;6.50;99.90
12166;DHT22;6146;48.128;11.476;2023-02-13T12:52:53;7.10;99.90
12166;DHT22;6146;48.128;11.476;2023-02-13T13:01:36;6.90;99.90
12166;DHT22;6146;48.128;11.476;2023-02-13T13:09:56;6.60;99.90
12166;DHT22;6146;48.128;11.476;2023-02-13T13:12:49;6.50;99.90
12166;DHT22;6146;48.128;11.476;2023-02-13T13:15:31;6.70;99.90
12166;DHT22;6146;48.128;11.476;2023-02-13T13:28:43;7.50;99.90
12166;DHT22;6146;48.128;11.476;2023-02-13T13:31:11;7.30;99.90
12166;DHT22;6146;48.128;11.476;2023-02-13T13:33:40;7.30;99.90
12166;DHT22;6146;48.128;11.476;2023-02-13T13:58:39;6.60;99.90
12166;DHT22;6146;48.128;11.476;2023-02-13T14:03:43;6.10;99.90
12166;DHT22;6146;48.128;11.476;2023-02-13T14:06:12;6.00;99.90
12166;DHT22;6146;48.128;11.476;2023-02-13T14:11:05;6.10;99.90
12166;DHT22;6146;48.128;11.476;2023-02-13T14:13:49;6.00;99.90
12166;DHT22;6146;48.128;11.476;2023-02-13T14:16:44;5.40;99.90
12166;DHT22;6146;48.128;11.476;2023-02-13T14:19:27;5.20;99.90
12166;DHT22;6146;48.128;11.476;2023-02-13T14:21:53;4.80;99.90
12166;DHT22;6146;48.128;11.476;2023-02-13T14:24:21;4.80;99.90
12166;DHT22;6146;48.128;11.476;2023-02-13T14:26:53;4.80;99.90
12166;DHT22;6146;48.128;11.476;2023-02-13T14:29:24;4.70;99.90
12166;DHT22;6146;48.128;11.476;2023-02-13T14:34:26;5.50;99.90
12166;DHT22;6146;48.128;11.476;2023-02-13T14:37:17;5.90;99.90
12166;DHT22;6146;48.128;11.476;2023-02-13T14:40:26;6.00;99.90
12166;DHT22;6146;48.128;11.476;2023-02-13T14:43:22;5.60;99.90
12166;DHT22;6146;48.128;11.476;2023-02-13T14:48:36;5.40;99.90
12166;DHT22;6146;48.128;11.476;2023-02-13T14:51:04;5.10;99.90
12166;DHT22;6146;48.128;11.476;2023-02-13T14:53:47;5.30;99.90
12166;DHT22;6146;48.128;11.476;2023-02-13T14:56:17;5.30;99.90
12166;DHT22;6146;48.128;11.476;2023-02-13T14:58:52;5.60;99.90
12166;DHT22;6146;48.128;11.476;2023-02-13T15:01:34;5.20;99.90
12166;DHT22;6146;48.128;11.476;2023-02-13T15:04:10;5.20;99.90
12166;DHT22;6146;48.128;11.476;2023-02-13T15:06:42;5.10;99.90
12166;DHT22;6146;48.128;11.476;2023-02-13T15:09:23;5.00;99.90
12166;DHT22;6146;48.128;11.476;2023-02-13T15:11:50;4.90;99.90
12166;DHT22;6146;48.128;11.476;2023-02-13T15:14:17;4.70;99.90
12166;DHT22;6146;48.128;11.476;2023-02-13T15:16:46;4.20;99.90
12166;DHT22;6146;48.128;11.476;2023-02-13T15:19:18;3.90;99.90
12166;DHT22;6146;48.128;11.476;2023-02-13T15:21:53;4.00;99.90
12166;DHT22;6146;48.128;11.476;2023-02-13T15:24:20;4.20;99.90
12166;DHT22;6146;48.128;11.476;2023-02-13T15:26:55;4.50;99.90
12166;DHT22;6146;48.128;11.476;2023-02-13T15:29:23;4.70;99.90
12166;DHT22;6146;48.128;11.476;2023-02-13T15:31:48;4.60;99.90
12166;DHT22;6146;48.128;11.476;2023-02-13T15:34:23;4.70;99.90
12166;DHT22;6146;48.128;11.476;2023-02-13T15:36:49;4.60;99.90
12166;DHT22;6146;48.128;11.476;2023-02-13T15:39:17;4.50;99.90
12166;DHT22;6146;48.128;11.476;2023-02-13T15:41:46;4.50;99.90
12166;DHT22;6146;48.128;11.476;2023-02-13T15:44:47;4.30;99.90
12166;DHT22;6146;48.128;11.476;2023-02-13T15:47:32;4.10;99.90
12166;DHT22;6146;48.128;11.476;2023-02-13T15:49:58;4.00;99.90
12166;DHT22;6146;48.128;11.476;2023-02-13T15:52:37;3.90;99.90
12166;DHT22;6146;48.128;11.476;2023-02-13T15:55:03;3.90;99.90
12166;DHT22;6146;48.128;11.476;2023-02-13T15:57:29;3.80;99.90
12166;DHT22;6146;48.128;11.476;2023-02-13T15:59:57;3.50;99.90
12166;DHT22;6146;48.128;11.476;2023-02-13T16:02:40;3.40;99.90
12166;DHT22;6146;48.128;11.476;2023-02-13T16:05:07;3.40;99.90
12166;DHT22;6146;48.128;11.476;2023-02-13T16:07:52;3.40;99.90
12166;DHT22;6146;48.128;11.476;2023-02-13T16:10:30;3.40;99.90
12166;DHT22;6146;48.128;11.476;2023-02-13T16:12:58;3.40;99.90
12166;DHT22;6146;48.128;11.476;2023-02-13T16:15:27;3.30;99.90
12166;DHT22;6146;48.128;11.476;2023-02-13T16:17:55;3.20;99.90
12166;DHT22;6146;48.128;11.476;2023-02-13T16:20:23;3.20;99.90
12166;DHT22;6146;48.128;11.476;2023-02-13T16:23:33;3.10;99.90
12166;DHT22;6146;48.128;11.476;2023-02-13T16:25:40;3.10;99.90
12166;DHT22;6146;48.128;11.476;2023-02-13T16:30:35;3.20;99.90
12166;DHT22;6146;48.128;11.476;2023-02-13T16:35:54;3.20;99.90
12166;DHT22;6146;48.128;11.476;2023-02-13T16:43:51;3.10;99.90
12166;DHT22;6146;48.128;11.476;2023-02-13T16:51:46;2.90;99.90
12166;DHT22;6146;48.128;11.476;2023-02-13T16:59:19;3.00;99.90
12166;DHT22;6146;48.128;11.476;2023-02-13T17:01:45;3.10;99.90
12166;DHT22;6146;48.128;11.476;2023-02-13T17:04:22;3.10;99.90
12166;DHT22;6146;48.128;11.476;2023-02-13T17:06:53;3.20;99.90
12166;DHT22;6146;48.128;11.476;2023-02-13T17:09:19;3.20;99.90
12166;DHT22;6146;48.128;11.476;2023-02-13T17:11:49;3.20;99.90
12166;DHT22;6146;48.128;11.476;2023-02-13T17:14:16;3.20;99.90
12166;DHT22;6146;48.128;11.476;2023-02-13T17:16:41;3.20;99.90
12166;DHT22;6146;48.128;11.476;2023-02-13T17:19:07;3.10;99.90
12166;DHT22;6146;48.128;11.476;2023-02-13T17:21:33;3.20;99.90
12166;DHT22;6146;48.128;11.476;2023-02-13T17:24:00;3.20;99.90
12166;DHT22;6146;48.128;11.476;2023-02-13T17:26:29;3.20;99.90
12166;DHT22;6146;48.128;11.476;2023-02-13T17:28:55;3.10;99.90
12166;DHT22;6146;48.128;11.476;2023-02-13T17:31:25;3.20;99.90
12166;DHT22;6146;48.128;11.476;2023-02-13T17:33:54;3.20;99.90
12166;DHT22;6146;48.128;11.476;2023-02-13T17:36:20;3.20;99.90
12166;DHT22;6146;48.128;11.476;2023-02-13T17:38:49;3.20;99.90
12166;DHT22;6146;48.128;11.476;2023-02-13T17:41:15;3.10;99.90
12166;DHT22;6146;48.128;11.476;2023-02-13T17:43:47;3.10;99.90
12166;DHT22;6146;48.128;11.476;2023-02-13T17:46:22;3.10;99.90
12166;DHT22;6146;48.128;11.476;2023-02-13T17:49:11;3.10;99.90
12166;DHT22;6146;48.128;11.476;2023-02-13T17:51:40;3.10;99.90
12166;DHT22;6146;48.128;11.476;2023-02-13T17:54:08;3.00;99.90
12166;DHT22;6146;48.128;11.476;2023-02-13T17:56:35;3.10;99.90
12166;DHT22;6146;48.128;11.476;2023-02-13T17:59:01;3.10;99.90
12166;DHT22;6146;48.128;11.476;2023-02-13T18:01:26;3.10;99.90
12166;DHT22;6146;48.128;11.476;2023-02-13T18:03:52;3.10;99.90
12166;DHT22;6146;48.128;11.476;2023-02-13T18:06:17;3.00;99.90
12166;DHT22;6146;48.128;11.476;2023-02-13T18:08:46;3.00;99.90
12166;DHT22;6146;48.128;11.476;2023-02-13T18:11:12;3.00;99.90
12166;DHT22;6146;48.128;11.476;2023-02-13T18:13:37;3.00;99.90
12166;DHT22;6146;48.128;11.476;2023-02-13T18:16:11;3.00;99.90
12166;DHT22;6146;48.128;11.476;2023-02-13T18:18:36;3.00;99.90
12166;DHT22;6146;48.128;11.476;2023-02-13T18:21:02;2.90;99.90
12166;DHT22;6146;48.128;11.476;2023-02-13T18:23:28;2.70;99.90
12166;DHT22;6146;48.128;11.476;2023-02-13T18:26:01;2.60;99.90
12166;DHT22;6146;48.128;11.476;2023-02-13T18:28:27;3.30;99.90
12166;DHT22;6146;48.128;11.476;2023-02-13T18:30:54;2.60;99.90
12166;DHT22;6146;48.128;11.476;2023-02-13T18:33:21;2.50;99.90
12166;DHT22;6146;48.128;11.476;2023-02-13T18:35:50;2.50;99.90
12166;DHT22;6146;48.128;11.476;2023-02-13T18:38:16;2.50;99.90
12166;DHT22;6146;48.128;11.476;2023-02-13T18:40:42;2.50;99.90
12166;DHT22;6146;48.128;11.476;2023-02-13T18:43:08;2.70;99.90
12166;DHT22;6146;48.128;11.476;2023-02-13T18:45:35;2.60;99.90
12166;DHT22;6146;48.128;11.476;2023-02-13T18:48:01;2.60;99.90
12166;DHT22;6146;48.128;11.476;2023-02-13T18:50:27;2.50;99.90
12166;DHT22;6146;48.128;11.476;2023-02-13T18:52:53;2.60;99.90
12166;DHT22;6146;48.128;11.476;2023-02-13T18:55:18;2.60;99.90
12166;DHT22;6146;48.128;11.476;2023-02-13T18:57:51;2.70;99.90
12166;DHT22;6146;48.128;11.476;2023-02-13T19:00:17;2.70;99.90
12166;DHT22;6146;48.128;11.476;2023-02-13T19:02:44;2.70;99.90
12166;DHT22;6146;48.128;11.476;2023-02-13T19:05:09;2.80;99.90
12166;DHT22;6146;48.128;11.476;2023-02-13T19:07:35;2.80;99.90
12166;DHT22;6146;48.128;11.476;2023-02-13T19:10:01;2.80;99.90